createdAt,value
2019-03-18T00:01:17.563Z,23.52
2019-03-18T00:03:48.884Z,23.20
2019-03-18T00:06:20.087Z,23.07
2019-03-18T00:08:51.408Z,23.15
2019-03-18T00:11:22.763Z,22.87
2019-03-18T00:13:54.082Z,22.00
2019-03-18T00:16:25.473Z,22.52
2019-03-18T00:18:58.153Z,23.12
2019-03-18T00:21:30.010Z,23.53
2019-03-18T00:24:01.869Z,23.05
2019-03-18T00:26:33.479Z,22.45
2019-03-18T00:29:04.775Z,21.17
2019-03-18T00:31:36.079Z,20.92
2019-03-18T00:34:07.392Z,21.17
2019-03-18T00:36:38.719Z,20.68
2019-03-18T00:39:10.056Z,21.00
2019-03-18T00:41:41.400Z,20.15
2019-03-18T00:44:12.687Z,20.40
2019-03-18T00:46:43.883Z,18.50
2019-03-18T00:49:15.065Z,19.10
2019-03-18T00:51:46.361Z,18.07
2019-03-18T00:54:17.679Z,17.52
2019-03-18T00:56:49.059Z,18.15
2019-03-18T00:59:20.356Z,18.67
2019-03-18T01:01:51.661Z,18.70
2019-03-18T01:04:23.024Z,20.68
2019-03-18T01:06:54.374Z,20.40
2019-03-18T01:09:25.645Z,20.00
2019-03-18T01:11:57.238Z,22.32
2019-03-18T01:14:28.527Z,21.95
2019-03-18T01:16:59.923Z,22.77
2019-03-18T01:19:31.148Z,25.02
2019-03-18T01:22:03.190Z,24.63
2019-03-18T01:24:34.965Z,24.80
2019-03-18T01:27:06.728Z,24.25
2019-03-18T01:29:38.569Z,23.05
2019-03-18T01:32:10.121Z,25.88
2019-03-18T01:34:41.485Z,25.08
2019-03-18T01:37:12.809Z,24.43
2019-03-18T01:39:44.042Z,25.40
2019-03-18T01:42:16.882Z,25.20
2019-03-18T01:44:48.344Z,24.82
2019-03-18T01:47:19.653Z,25.90
2019-03-18T01:49:50.888Z,24.20
2019-03-18T01:52:22.156Z,25.40
2019-03-18T01:54:53.426Z,25.10
2019-03-18T01:57:24.666Z,26.17
2019-03-18T01:59:55.875Z,25.85
2019-03-18T02:02:27.097Z,24.55
2019-03-18T02:04:58.419Z,24.60
2019-03-18T02:07:29.706Z,25.05
2019-03-18T02:10:00.955Z,23.75
2019-03-18T02:12:32.237Z,26.97
2019-03-18T02:15:03.764Z,28.07
2019-03-18T02:17:35.206Z,28.07
2019-03-18T02:20:12.210Z,28.42
2019-03-18T02:22:43.621Z,25.90
2019-03-18T02:25:15.025Z,30.20
2019-03-18T02:27:46.354Z,29.60
2019-03-18T02:30:18.897Z,30.92
2019-03-18T02:32:50.283Z,31.12
2019-03-18T02:35:21.540Z,30.08
2019-03-18T02:37:52.813Z,31.40
2019-03-18T02:40:24.135Z,33.13
2019-03-18T02:42:55.498Z,31.30
2019-03-18T02:45:26.864Z,32.08
2019-03-18T02:47:58.193Z,31.68
2019-03-18T02:50:29.563Z,35.33
2019-03-18T02:53:01.932Z,33.50
2019-03-18T02:55:33.590Z,32.90
2019-03-18T02:58:05.024Z,33.00
2019-03-18T03:00:36.345Z,34.20
2019-03-18T03:03:07.662Z,34.03
2019-03-18T03:05:39.023Z,34.70
2019-03-18T03:08:10.293Z,36.58
2019-03-18T03:10:41.557Z,33.53
2019-03-18T03:13:12.828Z,32.65
2019-03-18T03:15:44.010Z,34.70
2019-03-18T03:18:15.396Z,33.92
2019-03-18T03:20:46.702Z,34.00
2019-03-18T03:23:18.041Z,34.18
2019-03-18T03:25:49.409Z,33.67
2019-03-18T03:28:20.658Z,30.68
2019-03-18T03:30:53.375Z,31.85
2019-03-18T03:33:24.732Z,31.37
2019-03-18T03:35:56.173Z,32.25
2019-03-18T03:38:27.537Z,33.23
2019-03-18T03:40:58.886Z,33.05
2019-03-18T03:43:30.242Z,30.52
2019-03-18T03:46:01.533Z,31.42
2019-03-18T03:48:32.974Z,32.67
2019-03-18T03:51:04.290Z,33.75
2019-03-18T03:53:35.587Z,30.68
2019-03-18T03:56:08.709Z,32.85
2019-03-18T03:58:39.998Z,30.68
2019-03-18T04:01:11.335Z,32.40
2019-03-18T04:03:42.704Z,32.95
2019-03-18T04:06:13.986Z,32.50
2019-03-18T04:08:45.306Z,31.55
2019-03-18T04:11:16.686Z,32.08
2019-03-18T04:13:47.790Z,32.38
2019-03-18T04:16:19.096Z,29.02
2019-03-18T04:18:50.355Z,28.32
2019-03-18T04:21:22.633Z,28.07
2019-03-18T04:23:53.922Z,27.95
2019-03-18T04:26:26.315Z,28.25
2019-03-18T04:28:57.584Z,26.65
2019-03-18T04:31:28.869Z,26.12
2019-03-18T04:34:00.558Z,27.93
2019-03-18T04:36:32.064Z,28.05
2019-03-18T04:39:04.658Z,25.02
2019-03-18T04:41:35.898Z,25.43
2019-03-18T04:44:07.761Z,25.12
2019-03-18T04:46:39.517Z,25.12
2019-03-18T04:49:11.277Z,23.90
2019-03-18T04:51:42.722Z,23.50
2019-03-18T04:54:15.095Z,24.57
2019-03-18T04:56:46.862Z,21.60
2019-03-18T04:59:18.613Z,22.58
2019-03-18T05:01:50.472Z,23.80
2019-03-18T05:04:22.055Z,20.10
2019-03-18T05:06:53.478Z,21.57
2019-03-18T05:09:25.136Z,21.15
2019-03-18T05:11:56.723Z,21.02
2019-03-18T05:14:27.921Z,22.30
2019-03-18T05:16:59.492Z,21.93
2019-03-18T05:19:30.749Z,21.77
2019-03-18T05:22:02.089Z,19.48
2019-03-18T05:24:33.368Z,29.32
2019-03-18T05:27:04.780Z,25.97
2019-03-18T05:29:36.338Z,40.10
2019-03-18T05:32:07.682Z,42.53
2019-03-18T05:34:39.305Z,37.35
2019-03-18T05:37:10.494Z,37.45
2019-03-18T05:39:41.826Z,31.73
2019-03-18T05:42:13.020Z,29.20
2019-03-18T05:44:44.278Z,29.12
2019-03-18T05:47:15.617Z,29.95
2019-03-18T05:49:47.024Z,27.90
2019-03-18T05:52:18.378Z,27.80
2019-03-18T05:54:49.696Z,25.30
2019-03-18T05:57:20.973Z,24.37
2019-03-18T05:59:52.231Z,22.42
2019-03-18T06:02:23.785Z,22.60
2019-03-18T06:04:55.476Z,22.03
2019-03-18T06:07:27.071Z,22.87
2019-03-18T06:09:58.774Z,20.97
2019-03-18T06:12:30.381Z,20.72
2019-03-18T06:15:02.247Z,20.95
2019-03-18T06:17:34.005Z,19.65
2019-03-18T06:20:08.232Z,20.40
2019-03-18T06:22:39.624Z,18.70
2019-03-18T06:25:11.208Z,19.90
2019-03-18T06:27:42.917Z,18.50
2019-03-18T06:30:15.490Z,18.30
2019-03-18T06:32:46.778Z,17.75
2019-03-18T06:35:20.546Z,18.32
2019-03-18T06:37:51.323Z,16.50
2019-03-18T06:40:22.702Z,16.50
2019-03-18T06:42:54.369Z,15.18
2019-03-18T06:45:26.219Z,16.20
2019-03-18T06:48:04.744Z,16.87
2019-03-18T06:50:30.865Z,16.62
2019-03-18T06:53:02.720Z,16.48
2019-03-18T06:55:34.484Z,19.17
2019-03-18T06:58:06.234Z,20.20
2019-03-18T07:00:37.796Z,19.10
2019-03-18T07:03:09.187Z,20.45
2019-03-18T07:05:40.485Z,20.05
2019-03-18T07:08:11.766Z,20.08
2019-03-18T07:10:44.155Z,20.12
2019-03-18T07:13:15.970Z,20.20
2019-03-18T07:15:47.713Z,18.15
2019-03-18T07:18:19.376Z,20.25
2019-03-18T07:20:51.232Z,21.50
2019-03-18T07:23:22.778Z,20.85
2019-03-18T07:25:55.993Z,23.05
2019-03-18T07:28:27.362Z,24.95
2019-03-18T07:30:58.616Z,23.92
2019-03-18T07:33:30.224Z,27.20
2019-03-18T07:36:01.986Z,26.10
2019-03-18T07:38:33.745Z,26.50
2019-03-18T07:41:05.392Z,27.58
2019-03-18T07:43:37.265Z,27.37
2019-03-18T07:46:09.015Z,24.87
2019-03-18T07:48:40.651Z,25.55
2019-03-18T07:51:12.232Z,21.97
2019-03-18T07:53:44.029Z,22.42
2019-03-18T07:56:15.877Z,21.80
2019-03-18T07:58:49.061Z,22.15
2019-03-18T08:03:51.549Z,23.42
2019-03-18T08:06:23.392Z,22.42
2019-03-18T08:08:55.166Z,19.37
2019-03-18T08:11:26.848Z,18.77
2019-03-18T08:13:58.454Z,20.02
2019-03-18T08:16:30.223Z,17.60
2019-03-18T08:19:01.921Z,16.55
2019-03-18T08:21:33.330Z,16.00
2019-03-18T08:24:04.659Z,14.50
2019-03-18T08:26:36.011Z,15.08
2019-03-18T08:29:07.424Z,14.63
2019-03-18T08:31:39.725Z,14.47
2019-03-18T08:34:11.043Z,13.95
2019-03-18T08:36:42.451Z,13.22
2019-03-18T08:39:13.809Z,14.63
2019-03-18T08:41:45.096Z,14.75
2019-03-18T08:44:16.502Z,13.53
2019-03-18T08:46:47.767Z,15.08
2019-03-18T08:49:20.031Z,13.62
2019-03-18T08:51:51.344Z,15.18
2019-03-18T08:54:22.694Z,14.78
2019-03-18T08:56:54.051Z,14.60
2019-03-18T08:59:25.377Z,15.98
2019-03-18T09:01:56.732Z,16.80
2019-03-18T09:04:28.186Z,14.35
2019-03-18T09:06:59.758Z,16.42
2019-03-18T09:09:31.138Z,14.68
2019-03-18T09:12:02.429Z,14.15
2019-03-18T09:14:33.772Z,13.10
2019-03-18T09:17:05.340Z,13.20
2019-03-18T09:19:37.009Z,12.55
2019-03-18T09:22:08.651Z,12.68
2019-03-18T09:24:40.521Z,12.20
2019-03-18T09:27:12.271Z,9.98
2019-03-18T09:29:44.049Z,7.35
2019-03-18T09:32:15.662Z,7.90
2019-03-18T09:34:47.387Z,8.00
2019-03-18T09:37:19.161Z,5.40
2019-03-18T09:39:50.529Z,4.17
2019-03-18T09:42:21.797Z,3.55
2019-03-18T09:44:53.042Z,3.17
2019-03-18T09:47:24.356Z,2.90
2019-03-18T09:49:56.982Z,2.60
2019-03-18T09:52:28.272Z,2.72
2019-03-18T09:54:59.526Z,3.45
2019-03-18T09:57:30.744Z,3.47
2019-03-18T10:00:01.961Z,3.85
2019-03-18T10:02:33.246Z,3.72
2019-03-18T10:05:05.941Z,3.72
2019-03-18T10:12:42.758Z,4.15
2019-03-18T10:15:18.327Z,3.67
2019-03-18T10:17:49.574Z,3.92
2019-03-18T10:20:22.761Z,4.10
2019-03-18T10:22:55.614Z,4.05
2019-03-18T10:27:57.408Z,4.12
2019-03-18T10:30:28.903Z,4.25
2019-03-18T10:33:00.319Z,3.75
2019-03-18T10:35:31.509Z,3.90
2019-03-18T10:38:05.689Z,3.90
2019-03-18T10:40:36.947Z,4.30
2019-03-18T10:43:08.292Z,4.22
2019-03-18T10:45:40.469Z,4.90
2019-03-18T10:48:12.150Z,4.30
2019-03-18T10:50:43.475Z,4.67
2019-03-18T10:53:14.733Z,4.50
2019-03-18T10:55:45.870Z,5.10
2019-03-18T10:58:18.210Z,4.85
2019-03-18T11:00:49.728Z,5.20
2019-03-18T11:03:21.101Z,5.12
2019-03-18T11:05:52.478Z,5.40
2019-03-18T11:08:24.256Z,5.60
2019-03-18T11:10:55.474Z,4.80
2019-03-18T11:13:26.708Z,6.03
2019-03-18T11:15:59.347Z,4.50
2019-03-18T11:18:30.708Z,3.90
2019-03-18T11:21:02.424Z,4.00
2019-03-18T11:23:34.065Z,3.30
2019-03-18T11:26:05.839Z,3.77
2019-03-18T11:28:37.487Z,4.17
2019-03-18T11:31:09.098Z,4.25
2019-03-18T11:33:40.703Z,4.62
2019-03-18T11:36:12.243Z,4.15
2019-03-18T11:38:43.859Z,3.80
2019-03-18T11:41:17.525Z,4.15
2019-03-18T11:43:48.441Z,4.30
2019-03-18T11:46:21.124Z,3.90
2019-03-18T11:48:52.366Z,3.47
2019-03-18T11:51:26.581Z,3.62
2019-03-18T11:53:58.247Z,3.58
2019-03-18T11:56:29.749Z,3.77
2019-03-18T11:59:00.837Z,3.50
2019-03-18T12:01:32.054Z,3.70
2019-03-18T12:04:03.424Z,3.02
2019-03-18T12:06:35.090Z,3.55
2019-03-18T12:09:06.988Z,4.55
2019-03-18T12:11:38.921Z,3.35
2019-03-18T12:14:10.524Z,3.75
2019-03-18T12:16:41.795Z,3.67
2019-03-18T12:19:12.925Z,4.00
2019-03-18T12:21:44.301Z,3.67
2019-03-18T12:24:15.660Z,4.70
2019-03-18T12:26:49.203Z,5.05
2019-03-18T12:31:50.560Z,4.00
2019-03-18T12:34:24.066Z,3.70
2019-03-18T12:36:56.584Z,4.25
2019-03-18T12:39:29.067Z,6.30
2019-03-18T12:42:00.562Z,5.75
2019-03-18T12:44:31.697Z,5.78
2019-03-18T12:47:02.974Z,5.00
2019-03-18T12:49:34.307Z,4.80
2019-03-18T12:52:05.546Z,6.37
2019-03-18T12:54:36.851Z,6.28
2019-03-18T12:57:08.122Z,5.92
2019-03-18T12:59:39.282Z,5.15
2019-03-18T13:02:10.502Z,4.30
2019-03-18T13:04:42.751Z,5.22
2019-03-18T13:07:14.407Z,6.55
2019-03-18T13:09:46.011Z,6.45
2019-03-18T13:12:17.475Z,5.62
2019-03-18T13:14:48.919Z,4.70
2019-03-18T13:17:20.481Z,5.08
2019-03-18T13:19:51.829Z,4.50
2019-03-18T13:22:22.938Z,4.97
2019-03-18T13:24:54.100Z,5.12
2019-03-18T13:27:25.684Z,5.67
2019-03-18T13:29:57.045Z,5.95
2019-03-18T13:32:28.312Z,7.20
2019-03-18T13:34:59.644Z,6.33
2019-03-18T13:37:33.486Z,5.65
2019-03-18T13:40:10.199Z,5.87
2019-03-18T13:42:41.904Z,5.42
2019-03-18T13:45:21.330Z,5.30
2019-03-18T13:47:52.680Z,6.55
2019-03-18T13:50:24.335Z,6.00
2019-03-18T13:52:56.302Z,6.97
2019-03-18T13:55:27.745Z,6.72
2019-03-18T13:57:59.830Z,7.62
2019-03-18T14:00:31.495Z,6.80
2019-03-18T14:03:03.231Z,6.80
2019-03-18T14:05:34.510Z,6.90
2019-03-18T14:08:05.788Z,6.33
2019-03-18T14:10:37.268Z,5.72
2019-03-18T14:13:08.931Z,5.83
2019-03-18T14:15:40.694Z,5.58
2019-03-18T14:18:12.754Z,5.65
2019-03-18T14:20:44.516Z,6.22
2019-03-18T14:23:16.274Z,6.22
2019-03-18T14:25:50.900Z,5.72
2019-03-18T14:28:22.593Z,6.15
2019-03-18T14:30:54.424Z,5.85
2019-03-18T14:33:28.320Z,5.90
2019-03-18T14:36:00.261Z,6.05
2019-03-18T14:38:31.642Z,5.25
2019-03-18T14:41:04.154Z,5.37
2019-03-18T14:43:35.471Z,6.55
2019-03-18T14:46:06.794Z,5.87
2019-03-18T14:48:38.245Z,6.08
2019-03-18T14:51:09.658Z,5.40
2019-03-18T14:53:41.067Z,5.87
2019-03-18T14:56:12.400Z,5.53
2019-03-18T14:58:43.735Z,5.10
2019-03-18T15:01:15.212Z,5.50
2019-03-18T15:03:46.501Z,4.50
2019-03-18T15:06:17.850Z,4.90
2019-03-18T15:08:49.190Z,4.60
2019-03-18T15:11:20.471Z,5.15
2019-03-18T15:13:51.761Z,5.30
2019-03-18T15:16:23.038Z,4.83
2019-03-18T15:18:55.256Z,5.72
2019-03-18T15:21:26.633Z,4.53
2019-03-18T15:23:57.861Z,5.33
2019-03-18T15:26:29.123Z,6.35
2019-03-18T15:29:00.453Z,6.62
2019-03-18T15:31:31.649Z,6.35
2019-03-18T15:34:02.985Z,5.67
2019-03-18T15:36:34.361Z,5.87
2019-03-18T15:39:06.992Z,5.28
2019-03-18T15:41:39.947Z,6.33
2019-03-18T15:44:11.238Z,7.42
2019-03-18T15:46:42.649Z,9.80
2019-03-18T15:49:13.942Z,6.80
2019-03-18T15:51:45.300Z,6.45
2019-03-18T15:54:16.763Z,6.72
2019-03-18T15:56:48.292Z,7.92
2019-03-18T15:59:20.163Z,7.58
2019-03-18T16:01:51.683Z,7.47
2019-03-18T16:04:23.060Z,6.97
2019-03-18T16:06:54.402Z,8.00
2019-03-18T16:09:25.739Z,8.20
2019-03-18T16:11:57.126Z,9.75
2019-03-18T16:14:28.509Z,8.55
2019-03-18T16:17:02.178Z,9.75
2019-03-18T16:19:32.875Z,9.35
2019-03-18T16:22:04.284Z,10.15
2019-03-18T16:24:35.650Z,7.67
2019-03-18T16:27:07.065Z,7.80
2019-03-18T16:29:38.480Z,8.03
2019-03-18T16:32:11.670Z,8.80
2019-03-18T16:34:43.295Z,8.43
2019-03-18T16:37:14.548Z,8.20
2019-03-18T16:39:45.832Z,9.18
2019-03-18T16:42:17.185Z,8.90
2019-03-18T16:44:48.424Z,9.20
2019-03-18T16:47:19.737Z,8.43
2019-03-18T16:49:51.194Z,8.80
2019-03-18T16:52:34.999Z,8.78
2019-03-18T16:54:56.028Z,8.43
2019-03-18T16:57:27.583Z,8.35
2019-03-18T16:59:58.849Z,8.80
2019-03-18T17:02:30.223Z,8.40
2019-03-18T17:05:01.404Z,9.55
2019-03-18T17:07:32.677Z,10.40
2019-03-18T17:10:06.701Z,12.00
2019-03-18T17:12:38.031Z,11.80
2019-03-18T17:15:11.513Z,11.70
2019-03-18T17:17:42.858Z,11.55
2019-03-18T17:20:16.315Z,11.15
2019-03-18T17:22:50.178Z,11.83
2019-03-18T17:25:28.663Z,13.53
2019-03-18T17:27:59.979Z,13.48
2019-03-18T17:30:31.332Z,12.80
2019-03-18T17:33:02.547Z,13.25
2019-03-18T17:35:33.819Z,96.10
2019-03-18T17:38:05.092Z,22.82
2019-03-18T17:40:36.421Z,145.62
2019-03-18T17:43:07.724Z,18.02
2019-03-18T17:45:39.213Z,21.25
2019-03-18T17:48:10.535Z,56.40
2019-03-18T17:50:41.831Z,118.50
2019-03-18T17:53:13.169Z,49.03
2019-03-18T17:55:44.555Z,23.25
2019-03-18T17:58:15.819Z,24.30
2019-03-18T18:00:48.711Z,23.92
2019-03-18T18:05:51.587Z,12.10
2019-03-18T18:08:23.059Z,15.40
2019-03-18T18:10:54.325Z,34.58
2019-03-18T18:13:25.526Z,28.32
2019-03-18T18:15:56.864Z,22.40
2019-03-18T18:18:28.288Z,16.77
2019-03-18T18:20:59.567Z,39.30
2019-03-18T18:23:30.942Z,91.70
2019-03-18T18:26:02.417Z,36.17
2019-03-18T18:28:33.708Z,23.42
2019-03-18T18:31:05.390Z,29.65
2019-03-18T18:33:36.813Z,22.55
2019-03-18T18:36:08.047Z,16.42
2019-03-18T18:38:39.540Z,17.62
2019-03-18T18:41:12.550Z,18.52
2019-03-18T18:43:43.840Z,11.35
2019-03-18T18:46:16.389Z,12.40
2019-03-18T18:48:48.616Z,10.53
2019-03-18T18:51:19.979Z,10.72
2019-03-18T18:53:51.150Z,11.20
2019-03-18T18:56:22.403Z,11.18
2019-03-18T18:58:54.554Z,10.00
2019-03-18T19:01:25.825Z,10.82
2019-03-18T19:03:58.224Z,11.15
2019-03-18T19:06:29.450Z,11.45
2019-03-18T19:09:00.843Z,9.68
2019-03-18T19:11:32.306Z,11.12
2019-03-18T19:14:03.841Z,10.80
2019-03-18T19:16:35.092Z,11.45
2019-03-18T19:19:06.290Z,11.40
2019-03-18T19:21:37.839Z,11.30
2019-03-18T19:24:09.075Z,11.43
2019-03-18T19:26:40.752Z,11.43
2019-03-18T19:29:13.207Z,10.10
2019-03-18T19:31:44.545Z,11.57
2019-03-18T19:34:15.877Z,11.80
2019-03-18T19:36:47.181Z,11.97
2019-03-18T19:39:18.354Z,12.03
2019-03-18T19:41:49.681Z,12.25
2019-03-18T19:44:21.009Z,10.25
2019-03-18T19:46:52.242Z,10.72
2019-03-18T19:49:23.609Z,10.32
2019-03-18T19:51:54.847Z,12.07
2019-03-18T19:54:26.025Z,16.77
2019-03-18T19:56:58.320Z,20.32
2019-03-18T19:59:29.545Z,18.80
2019-03-18T20:02:01.117Z,17.25
2019-03-18T20:04:32.376Z,18.20
2019-03-18T20:07:03.790Z,18.23
2019-03-18T20:09:35.144Z,17.30
2019-03-18T20:12:06.396Z,18.70
2019-03-18T20:14:37.594Z,16.75
2019-03-18T20:17:08.871Z,17.87
2019-03-18T20:19:40.137Z,17.42
2019-03-18T20:22:11.430Z,19.30
2019-03-18T20:24:42.819Z,18.05
2019-03-18T20:27:14.234Z,19.35
2019-03-18T20:29:45.336Z,19.12
2019-03-18T20:32:16.657Z,19.27
2019-03-18T20:34:48.060Z,18.12
2019-03-18T20:37:19.402Z,19.10
2019-03-18T20:39:50.758Z,18.92
2019-03-18T20:42:22.072Z,19.25
2019-03-18T20:44:53.856Z,18.92
2019-03-18T20:47:25.277Z,20.27
2019-03-18T20:49:56.598Z,19.80
2019-03-18T20:52:27.934Z,19.15
2019-03-18T20:54:59.427Z,16.32
2019-03-18T20:57:31.261Z,17.40
2019-03-18T21:00:02.626Z,17.57
2019-03-18T21:02:34.156Z,18.07
2019-03-18T21:05:07.571Z,17.73
2019-03-18T21:07:38.774Z,16.90
2019-03-18T21:10:12.783Z,18.35
2019-03-18T21:12:44.151Z,19.30
2019-03-18T21:15:17.393Z,17.95
2019-03-18T21:17:48.694Z,18.35
2019-03-18T21:20:21.218Z,17.73
2019-03-18T21:22:52.479Z,17.48
2019-03-18T21:25:23.777Z,16.05
2019-03-18T21:27:55.088Z,18.98
2019-03-18T21:30:26.419Z,16.82
2019-03-18T21:32:57.674Z,16.55
2019-03-18T21:35:28.947Z,16.67
2019-03-18T21:38:00.307Z,16.67
2019-03-18T21:40:31.644Z,15.35
2019-03-18T21:43:02.912Z,17.10
2019-03-18T21:45:34.205Z,16.93
2019-03-18T21:48:05.394Z,17.10
2019-03-18T21:50:36.502Z,18.07
2019-03-18T21:53:07.852Z,18.17
2019-03-18T21:55:39.111Z,15.38
2019-03-18T21:58:10.421Z,14.87
2019-03-18T22:00:41.751Z,14.70
2019-03-18T22:03:13.076Z,14.25
2019-03-18T22:05:44.366Z,12.95
2019-03-18T22:08:15.610Z,11.45
2019-03-18T22:10:46.799Z,11.43
2019-03-18T22:13:18.113Z,11.75
2019-03-18T22:15:49.421Z,10.13
2019-03-18T22:18:22.298Z,11.10
2019-03-18T22:20:53.651Z,10.53
2019-03-18T22:23:24.885Z,10.88
2019-03-18T22:25:56.100Z,10.88
2019-03-18T22:28:27.412Z,11.20
2019-03-18T22:30:58.662Z,10.70
2019-03-18T22:33:31.021Z,10.63
2019-03-18T22:36:02.339Z,11.10
2019-03-18T22:38:33.768Z,10.65
2019-03-18T22:41:05.244Z,11.33
2019-03-18T22:43:36.508Z,11.30
2019-03-18T22:46:07.802Z,10.90
2019-03-18T22:48:38.916Z,12.00
2019-03-18T22:51:10.325Z,11.75
2019-03-18T22:53:41.612Z,11.68
2019-03-18T22:56:12.873Z,10.25
2019-03-18T22:58:44.079Z,10.40
2019-03-18T23:01:16.748Z,9.55
2019-03-18T23:03:47.958Z,10.63
2019-03-18T23:06:19.202Z,10.15
2019-03-18T23:08:50.532Z,9.00
2019-03-18T23:11:22.082Z,10.00
2019-03-18T23:13:53.321Z,10.38
2019-03-18T23:16:24.592Z,10.53
2019-03-18T23:18:55.912Z,10.20
2019-03-18T23:21:27.572Z,10.23
2019-03-18T23:23:59.428Z,8.98
2019-03-18T23:26:30.784Z,9.58
2019-03-18T23:29:01.980Z,9.35
2019-03-18T23:31:33.056Z,10.38
2019-03-18T23:34:04.303Z,10.70
2019-03-18T23:36:36.786Z,10.13
2019-03-18T23:39:08.607Z,9.85
2019-03-18T23:41:39.879Z,8.48
2019-03-18T23:44:11.013Z,9.25
2019-03-18T23:46:42.182Z,9.78
2019-03-18T23:49:13.306Z,9.03
2019-03-18T23:51:44.490Z,10.15
2019-03-18T23:54:15.736Z,8.73
2019-03-18T23:56:47.009Z,8.88
2019-03-18T23:59:18.169Z,10.05
